Limnos, Greece
Current Conditions -  °F | °C
As of 2:50 AM on Sunday 23 Nov 2014 (Local Time) from LGLM Reporting Station
Scattered Clouds Scattered Clouds  
Wind Chill: 45°   Ceiling: Unl
Heat Index: 48°   Visibility: 6mi
Dew Point: 39°   Wind: 7mph
Humidity: 71%   Direction: 60°ENE
Pressure: 30.27"   Gusts: NA
Location:  39.92°N, 25.24°E
Report Text: LGLM 222350Z 06006KT 9999 SCT020 09/04 Q1025
Loading
Personal Weather Stations






























Interactive Weather Map New forecast layout! Learn more

10-Day Weather Forecast

Advertisements
Track Severe Weather on mobile